Latest Weather Observations for Milingimbi

IDD60801

Issued at 12:51 pm CST Sunday 16 December 2018 (issued every 10 minutes, with the page automatically refreshed every 10 minutes)

About weather observations | Map of weather stations | Latest weather observations for NT | Other Formats
Station Details ID: 014404 Name: MILINGIMBI AIRPORT Lat: -12.09 Lon: 134.89 Height: 15.0 m
Data from the previous 72 hours. | See also: Recent months at Milingimbi
Date/Time
CST
Temp
°C
App
Temp
°C
Dew
Point
°C
Rel
Hum
%
Delta-T
°C
Wind Press
QNH
hPa
Press
MSL
hPa
Rain since
9am
mm
Dir  Spd
km/h
Gust
km/h
Spd
kts
Gust
kts
16/12:30pm 35.1 38.1 24.7 55 7.4 NW 17 24 9 13 1006.0 - 0.0
16/12:00pm 34.5 38.1 25.0 57 6.8 NW 15 22 8 12 1006.5 1006.3 0.0
16/11:30am 34.5 38.5 25.0 57 6.7 NW 13 20 7 11 1006.7 - 0.0
16/11:00am 34.0 37.2 23.7 55 7.2 NW 13 19 7 10 1006.9 - 0.0
16/10:30am 34.3 38.9 24.8 57 6.7 WNW 9 15 5 8 1007.2 - 0.0
16/10:00am 33.2 36.6 24.1 59 6.4 WNW 13 19 7 10 1007.4 - 0.0
16/09:30am 32.5 36.2 24.5 62 5.6 W 13 20 7 11 1007.6 - 0.0
16/09:00am 32.2 35.9 24.5 64 5.4 W 13 22 7 12 1007.4 1007.2 23.2
16/08:30am 31.1 35.2 25.7 73 3.8 W 15 22 8 12 1007.8 - 23.2
16/08:00am 30.0 34.9 26.4 81 2.6 W 13 17 7 9 1007.9 - 23.2
16/07:30am 29.3 34.5 26.3 84 2.1 WNW 11 17 6 9 1007.9 - 23.2
16/07:00am 28.3 34.5 26.3 89 1.4 W 6 9 3 5 1007.4 - 23.2
16/06:30am 27.7 33.5 26.1 91 1.1 W 7 9 4 5 1006.8 - 23.2
16/06:00am 27.3 33.1 25.7 91 1.1 W 6 7 3 4 1006.3 1006.1 23.2
16/05:30am 27.4 33.5 25.6 90 1.3 W 4 6 2 3 1005.9 - 23.2
16/05:00am 27.5 33.6 25.7 90 1.3 W 4 7 2 4 1005.6 - 23.2
16/04:30am 27.5 34.1 25.3 88 1.5 CALM 0 0 0 0 1005.6 - 23.2
16/04:00am 27.5 33.8 24.7 85 1.9 CALM 0 0 0 0 1005.3 - 23.2
16/03:30am 27.8 32.2 24.4 82 2.4 NW 9 17 5 9 1005.1 - 23.2
16/03:00am 27.7 33.3 25.5 88 1.6 W 6 9 3 5 1005.1 1004.9 23.2
16/02:30am 28.1 34.2 26.5 91 1.1 NNW 7 9 4 5 1005.1 - 23.0
16/02:00am 27.5 33.2 25.9 91 1.1 NNW 7 9 4 5 1005.3 - 23.0
16/01:30am 26.7 32.3 24.9 90 1.3 NW 4 9 2 5 1005.6 - 23.0
16/01:00am 26.7 32.2 24.7 89 1.4 WNW 4 6 2 3 1006.1 - 23.0
16/12:30am 26.3 31.5 24.2 88 1.4 W 4 9 2 5 1006.2 - 23.0
16/12:00am 26.3 32.1 24.0 87 1.6 CALM 0 0 0 0 1006.3 1006.1 23.0
 
Date/Time
CST
Temp
°C
App
Temp
°C
Dew
Point
°C
Rel
Hum
%
Delta-T
°C
Wind Press
QNH
hPa
Press
MSL
hPa
Rain since
9am
mm
Dir  Spd
km/h
Gust
km/h
Spd
kts
Gust
kts
15/11:30pm 26.5 31.7 24.2 87 1.6 SSW 4 7 2 4 1006.1 - 23.0
15/11:00pm 26.7 32.7 24.2 86 1.7 CALM 0 0 0 0 1005.5 - 23.0
15/10:30pm 26.8 32.4 24.3 86 1.7 WSW 2 7 1 4 1005.7 - 23.0
15/10:00pm 26.7 32.5 24.0 85 1.9 CALM 0 0 0 0 1005.7 - 23.0
15/09:30pm 26.6 31.4 24.1 86 1.7 WNW 6 7 3 4 1006.0 - 23.0
15/09:00pm 26.4 31.5 23.3 83 2.1 E 2 6 1 3 1005.6 1005.4 23.0
15/08:30pm 26.5 31.7 22.8 80 2.5 CALM 0 0 0 0 1005.1 - 23.0
15/08:00pm 26.9 31.7 22.1 75 3.2 CALM 0 0 0 0 1004.7 - 23.0
15/07:30pm 27.5 31.5 23.1 77 3.0 WSW 7 13 4 7 1004.7 - 23.0
15/07:00pm 28.1 32.0 24.3 80 2.6 NW 11 17 6 9 1003.8 - 23.0
15/06:30pm 27.9 32.3 24.5 82 2.4 NW 9 15 5 8 1004.2 - 23.0
15/06:00pm 28.6 33.6 26.0 86 1.8 NNW 11 20 6 11 1004.4 1004.2 23.0
15/05:30pm 29.2 33.6 25.0 78 2.9 S 11 17 6 9 1004.1 - 22.4
15/05:00pm 30.4 35.1 25.5 75 3.5 N 11 17 6 9 1004.5 - 22.4
15/04:30pm 31.0 35.7 25.6 73 3.8 N 11 20 6 11 1004.0 - 22.4
15/04:00pm 31.6 36.5 25.9 72 4.1 N 11 19 6 10 1003.7 - 22.4
15/03:30pm 31.4 35.4 25.0 69 4.5 NNW 13 24 7 13 1003.8 - 22.4
15/03:00pm 31.9 37.0 25.5 69 4.6 N 9 19 5 10 1004.2 1004.0 22.4
15/02:30pm 31.6 36.9 25.9 72 4.1 NNE 9 15 5 8 1004.1 - 22.4
15/02:00pm 30.3 35.8 25.6 76 3.3 NE 7 13 4 7 1004.6 - 22.2
15/01:30pm 27.1 32.9 25.1 89 1.4 N 4 11 2 6 1005.2 - 22.2
15/01:00pm 30.4 35.6 25.7 76 3.3 N 9 20 5 11 1006.0 - 1.2
15/12:30pm 32.2 36.6 24.5 64 5.4 NNW 9 13 5 7 1005.9 - 0.0
15/12:00pm 33.2 37.8 23.8 57 6.6 W 6 9 3 5 1006.3 1006.1 0.0
15/11:30am 33.3 37.9 24.2 59 6.4 WNW 7 11 4 6 1006.5 - 0.0
15/11:00am 32.4 36.7 24.2 62 5.7 WNW 9 15 5 8 1006.7 - 0.0
15/10:30am 31.8 36.4 24.7 66 5.0 W 9 15 5 8 1007.1 - 0.0
15/10:00am 31.1 36.7 25.4 71 4.0 W 6 9 3 5 1007.3 - 0.0
15/09:30am 30.1 35.4 24.9 73 3.7 WNW 6 7 3 4 1007.6 - 0.0
15/09:00am 29.7 35.0 25.0 76 3.3 W 6 9 3 5 1007.3 1007.1 0.0
15/08:30am 29.3 34.5 24.8 77 3.1 SW 6 9 3 5 1007.2 - 0.0
15/08:00am 29.0 33.7 25.0 79 2.8 WSW 9 15 5 8 1006.3 - 0.0
15/07:30am 28.8 33.2 25.0 80 2.7 W 11 20 6 11 1005.5 - 0.0
15/07:00am 28.6 32.6 25.0 81 2.5 W 13 20 7 11 1005.5 - 0.0
15/06:30am 28.7 32.7 25.1 81 2.5 W 13 19 7 10 1005.5 - 0.0
15/06:00am 28.9 32.6 25.1 80 2.7 W 15 26 8 14 1005.3 1005.1 0.0
15/05:30am 29.1 32.8 25.1 79 2.8 W 15 26 8 14 1004.9 - 0.0
15/05:00am 29.4 33.1 25.2 78 3.0 W 15 22 8 12 1004.6 - 0.0
15/04:30am 29.5 33.1 25.0 77 3.2 W 15 22 8 12 1003.9 - 0.0
15/04:00am 29.5 32.7 25.0 77 3.2 W 17 24 9 13 1003.5 - 0.0
15/03:30am 28.9 32.9 25.1 80 2.7 W 13 20 7 11 1003.4 - 0.0
15/03:00am 28.2 32.2 23.8 77 3.0 W 9 13 5 7 1003.6 1003.4 0.0
15/02:30am 27.9 31.9 23.1 75 3.3 W 7 11 4 6 1003.6 - 0.0
15/02:00am 28.0 31.8 22.7 73 3.6 WNW 7 9 4 5 1003.9 - 0.0
15/01:30am 28.2 32.0 22.7 72 3.7 W 7 11 4 6 1004.1 - 0.0
15/01:00am 28.7 32.3 22.4 68 4.3 WNW 7 11 4 6 1004.1 - 0.0
15/12:30am 29.0 32.1 22.2 66 4.6 WNW 9 15 5 8 1004.5 - 0.0
15/12:00am 29.5 32.1 22.7 67 4.6 W 13 20 7 11 1004.7 1004.5 0.0
 
Date/Time
CST
Temp
°C
App
Temp
°C
Dew
Point
°C
Rel
Hum
%
Delta-T
°C
Wind Press
QNH
hPa
Press
MSL
hPa
Rain since
9am
mm
Dir  Spd
km/h
Gust
km/h
Spd
kts
Gust
kts
14/11:30pm 30.2 36.1 26.8 82 2.4 W 9 15 5 8 1004.6 - 0.0
14/11:00pm 30.2 35.9 27.0 83 2.3 NW 11 19 6 10 1004.5 - 0.0
14/10:30pm 29.9 35.8 26.7 83 2.3 NW 9 13 5 7 1004.2 - 0.0
14/10:00pm 29.5 34.4 24.6 75 3.4 NNW 7 9 4 5 1004.1 - 0.0
14/09:30pm 29.7 33.9 24.1 72 3.9 NW 9 15 5 8 1004.1 - 0.0
14/09:00pm 29.9 33.8 23.6 69 4.4 WNW 9 13 5 7 1004.2 1004.0 0.0
14/08:30pm 30.1 34.5 25.6 77 3.2 WNW 13 19 7 10 1004.1 - 0.0
14/08:00pm 30.1 34.7 26.5 81 2.6 NW 15 22 8 12 1003.5 - 0.0
14/07:30pm 30.2 35.5 26.4 80 2.7 NW 11 19 6 10 1003.2 - 0.0
14/07:00pm 30.5 34.7 26.0 77 3.2 NW 15 22 8 12 1002.9 - 0.0
14/06:30pm 31.0 35.6 26.0 74 3.6 NW 13 22 7 12 1002.3 - 0.0
14/06:00pm 31.4 35.8 25.7 71 4.1 NW 13 20 7 11 1002.2 1002.0 0.0
14/05:30pm 31.5 34.9 25.8 72 4.1 NW 19 28 10 15 1001.9 - 0.0
14/05:00pm 32.2 35.9 26.3 71 4.2 NW 19 30 10 16 1001.8 - 0.0
14/04:30pm 33.1 37.2 26.4 68 4.8 NW 17 26 9 14 1001.7 - 0.0
14/04:00pm 33.2 37.8 26.5 68 4.8 NNW 15 26 8 14 1001.6 - 0.0
14/03:30pm 33.8 37.9 26.3 65 5.4 NW 17 32 9 17 1001.8 - 0.0
14/03:00pm 33.8 37.2 25.8 63 5.7 NNW 19 28 10 15 1001.8 1001.6 0.0
14/02:30pm 34.5 37.9 25.3 58 6.5 W 17 28 9 15 1002.1 - 0.0
14/02:00pm 34.8 38.4 25.6 59 6.6 WNW 17 26 9 14 1002.1 - 0.0
14/01:30pm 34.5 38.3 25.9 61 6.2 NW 17 30 9 16 1002.4 - 0.0
14/01:00pm 35.1 39.7 25.3 57 7.0 WNW 11 19 6 10 1002.9 - 0.0
14/12:30pm 35.1 38.3 24.4 54 7.5 W 15 24 8 13 1003.1 - 0.0
14/12:00pm 35.5 38.8 25.1 55 7.4 W 17 26 9 14 1003.5 1003.3 0.0
14/11:30am 34.4 37.6 24.9 57 6.7 W 17 28 9 15 1003.9 - 0.0
14/11:00am 33.6 37.0 25.3 62 5.9 WNW 17 26 9 14 1004.6 - 0.0
14/10:30am 34.0 36.2 24.0 56 7.0 W 19 30 10 16 1004.8 - 0.0
14/10:00am 32.6 34.9 24.1 61 5.9 W 19 28 10 15 1005.2 - 0.0
14/09:30am 32.2 34.2 24.5 64 5.4 W 22 33 12 18 1005.2 - 0.0
14/09:00am 31.8 33.5 24.1 63 5.4 W 22 39 12 21 1005.1 1004.9 0.0
14/08:30am 31.1 33.0 23.7 64 5.1 W 20 33 11 18 1005.4 - 0.0
14/08:00am 30.3 32.2 23.7 68 4.6 W 20 35 11 19 1005.5 - 0.0
14/07:30am 29.8 31.8 24.0 71 4.0 W 20 37 11 20 1005.1 - 0.0
14/07:00am 29.3 31.9 24.0 73 3.7 W 17 28 9 15 1005.0 - 0.0
14/06:30am 29.2 32.2 25.2 79 2.8 W 19 32 10 17 1005.0 - 0.0
14/06:00am 29.4 33.0 25.6 80 2.7 W 17 28 9 15 1004.6 1004.4 0.0
14/05:30am 29.6 33.0 25.8 80 2.7 W 19 32 10 17 1003.7 - 0.0
14/05:00am 29.5 34.2 26.1 82 2.4 W 13 24 7 13 1003.4 - 0.0
14/04:30am 29.2 33.6 26.2 84 2.1 WNW 15 22 8 12 1003.2 - 0.0
14/04:00am 29.0 33.2 26.0 84 2.1 WNW 15 22 8 12 1002.8 - 0.0
14/03:30am 28.8 32.3 25.4 82 2.4 WNW 17 24 9 13 1002.5 - 0.0
14/03:00am 28.8 32.5 24.6 78 2.9 WNW 13 19 7 10 1002.5 1002.3 0.0
14/02:30am 28.6 32.1 24.2 77 3.1 W 13 20 7 11 1002.9 - 0.0
14/02:00am 28.2 32.0 24.0 78 2.9 W 11 17 6 9 1003.0 - 0.0
14/01:30am 27.9 30.7 23.7 78 2.9 WNW 15 22 8 12 1003.3 - 0.0
14/01:00am 27.9 30.0 23.1 75 3.3 WNW 17 24 9 13 1003.5 - 0.0
14/12:30am 27.7 30.4 22.2 72 3.7 NW 11 17 6 9 1004.4 - 0.0
14/12:00am 27.6 30.0 21.6 70 4.0 W 11 19 6 10 1004.4 1004.2 0.0
 
Date/Time
CST
Temp
°C
App
Temp
°C
Dew
Point
°C
Rel
Hum
%
Delta-T
°C
Wind Press
QNH
hPa
Press
MSL
hPa
Rain since
9am
mm
Dir  Spd
km/h
Gust
km/h
Spd
kts
Gust
kts
13/11:30pm 28.0 29.1 21.3 67 4.5 W 17 26 9 14 1004.4 - 0.0
13/11:00pm 29.5 31.9 22.2 65 4.9 W 13 20 7 11 1004.5 - 0.0
13/10:30pm 30.3 34.9 26.0 78 3.1 WNW 13 22 7 12 1004.6 - 0.0
13/10:00pm 30.3 34.5 26.5 80 2.7 WNW 17 24 9 13 1003.7 - 0.0
13/09:30pm 30.3 34.2 26.9 82 2.4 WNW 20 30 11 16 1005.2 - 0.0
13/09:00pm 30.0 34.3 26.6 82 2.4 NW 17 30 9 16 1004.5 1004.3 0.0
13/08:30pm 30.0 34.5 26.4 81 2.6 NW 15 26 8 14 1004.0 - 0.0
13/08:00pm 30.0 34.8 26.2 80 2.7 NW 13 24 7 13 1004.0 - 0.0
13/07:30pm 30.2 34.0 25.9 78 3.1 NW 17 26 9 14 1003.4 - 0.0
13/07:00pm 30.3 34.2 25.4 75 3.5 WNW 15 26 8 14 1003.3 - 0.0
13/06:30pm 30.5 33.7 24.9 72 3.9 NW 17 28 9 15 1002.7 - 0.0
13/06:00pm 30.8 33.8 25.2 72 4.0 NW 19 30 10 16 1002.4 1002.2 0.0
13/05:30pm 31.0 34.1 25.4 72 4.0 NW 19 33 10 18 1002.2 - 0.0
13/05:00pm 31.9 34.7 25.0 67 4.9 NW 19 30 10 16 1002.3 - 0.0
13/04:30pm 32.4 35.4 24.7 64 5.4 NNW 17 28 9 15 1002.2 - 0.0
13/04:00pm 32.9 36.8 24.9 63 5.6 NW 13 24 7 13 1002.4 - 0.0
13/03:30pm 32.6 34.9 24.1 61 5.9 NW 19 28 10 15 1002.8 - 0.0
13/03:00pm 32.2 34.1 23.4 59 6.1 NW 19 30 10 16 1003.0 1002.8 0.0
13/02:30pm 33.9 35.5 23.3 54 7.4 NW 20 30 11 16 1003.5 - 0.0
13/02:00pm 34.0 35.5 22.7 51 7.8 NW 19 32 10 17 1003.8 - 0.0
13/01:30pm 34.6 37.0 23.0 51 8.0 NW 15 24 8 13 1004.1 - 0.0
13/01:00pm 33.5 36.4 23.8 57 6.8 WNW 15 24 8 13 1004.5 - 0.0

Other Formats:

Comma delimited format used in spreadsheet applications
http://www.bom.gov.au/fwo/IDD60801/IDD60801.94140.axf

JavaScript Object Notation format (JSON) in row-major order
http://www.bom.gov.au/fwo/IDD60801/IDD60801.94140.json